createdAt,value
2023-03-26T00:01:21.386Z,94277.66
2023-03-26T00:03:53.957Z,94276.00
2023-03-26T00:06:27.698Z,94274.97
2023-03-26T00:08:57.266Z,94271.69
2023-03-26T00:11:26.593Z,94277.16
2023-03-26T00:13:57.062Z,94269.03
2023-03-26T00:16:26.355Z,94267.84
2023-03-26T00:18:53.585Z,94260.53
2023-03-26T00:21:22.470Z,94270.06
2023-03-26T00:23:49.455Z,94255.69
2023-03-26T00:26:17.550Z,94263.59
2023-03-26T00:28:50.965Z,94266.72
2023-03-26T00:31:18.391Z,94269.38
2023-03-26T00:33:45.269Z,94273.16
2023-03-26T00:36:15.158Z,94261.25
2023-03-26T00:38:42.340Z,94270.06
2023-03-26T00:41:22.713Z,94265.84
2023-03-26T00:43:53.436Z,94264.38
2023-03-26T00:46:20.386Z,94263.88
2023-03-26T00:48:47.387Z,94260.75
2023-03-26T00:51:16.306Z,94256.03
2023-03-26T00:53:45.359Z,94256.75
2023-03-26T00:56:12.551Z,94267.00
2023-03-26T00:58:39.876Z,94262.72
2023-03-26T01:01:15.581Z,94259.78
2023-03-26T01:03:56.655Z,94258.56
2023-03-26T01:06:32.910Z,94245.28
2023-03-26T01:09:07.064Z,94248.16
2023-03-26T01:11:35.242Z,94243.44
2023-03-26T01:14:09.778Z,94241.53
2023-03-26T01:16:50.169Z,94239.88
2023-03-26T01:19:45.261Z,94231.53
2023-03-26T01:22:21.041Z,94240.31
2023-03-26T01:24:53.520Z,94235.94
2023-03-26T01:27:26.458Z,94226.25
2023-03-26T01:29:56.476Z,94232.41
2023-03-26T01:32:47.737Z,94231.91
2023-03-26T01:35:37.632Z,94228.63
2023-03-26T01:38:23.386Z,94224.88
2023-03-26T01:41:04.691Z,94220.84
2023-03-26T01:43:38.885Z,94215.16
2023-03-26T01:46:08.345Z,94221.28
2023-03-26T01:48:38.626Z,94213.72
2023-03-26T01:51:06.487Z,94210.63
2023-03-26T01:53:37.360Z,94201.63
2023-03-26T01:56:41.557Z,94197.56
2023-03-26T01:59:32.914Z,94198.53
2023-03-26T02:02:17.520Z,94200.66
2023-03-26T02:04:54.436Z,94197.28
2023-03-26T02:07:44.728Z,94203.50
2023-03-26T02:10:16.436Z,94196.16
2023-03-26T02:12:44.539Z,94192.59
2023-03-26T02:15:12.331Z,94186.41
2023-03-26T02:17:42.668Z,94188.56
2023-03-26T02:20:12.375Z,94177.63
2023-03-26T02:22:45.845Z,94180.25
2023-03-26T02:25:16.166Z,94179.06
2023-03-26T02:27:43.410Z,94184.28
2023-03-26T02:30:13.858Z,94170.75
2023-03-26T02:32:40.696Z,94168.84
2023-03-26T02:35:07.793Z,94168.84
2023-03-26T02:37:34.494Z,94169.78
2023-03-26T02:40:01.202Z,94169.31
2023-03-26T02:42:28.065Z,94160.28
2023-03-26T02:44:54.771Z,94164.59
2023-03-26T02:47:21.452Z,94157.47
2023-03-26T02:49:48.164Z,94147.47
2023-03-26T02:52:17.256Z,94143.69
2023-03-26T02:54:44.095Z,94142.47
2023-03-26T02:57:11.256Z,94130.59
2023-03-26T02:59:38.380Z,94128.25
2023-03-26T03:02:05.475Z,94128.94
2023-03-26T03:04:32.261Z,94123.47
2023-03-26T03:06:59.904Z,94121.78
2023-03-26T03:09:26.690Z,94119.88
2023-03-26T03:11:53.321Z,94112.03
2023-03-26T03:14:20.653Z,94111.59
2023-03-26T03:16:47.431Z,94105.91
2023-03-26T03:19:14.343Z,94112.53
2023-03-26T03:21:41.945Z,94105.41
2023-03-26T03:24:09.369Z,94106.84
2023-03-26T03:26:36.584Z,94103.03
2023-03-26T03:29:03.580Z,94106.38
2023-03-26T03:31:30.377Z,94103.53
2023-03-26T03:33:57.039Z,94089.97
2023-03-26T03:36:24.139Z,94087.56
2023-03-26T03:38:51.318Z,94075.94
2023-03-26T03:41:18.790Z,94074.75
2023-03-26T03:43:46.283Z,94076.19
2023-03-26T03:46:13.067Z,94065.47
2023-03-26T03:48:39.836Z,94061.66
2023-03-26T03:51:06.915Z,94067.13
2023-03-26T03:53:37.149Z,94069.03
2023-03-26T03:56:10.241Z,94061.19
2023-03-26T03:58:37.389Z,94059.28
2023-03-26T04:01:04.698Z,94050.75
2023-03-26T04:03:38.842Z,94051.44
2023-03-26T04:06:07.059Z,94049.06
2023-03-26T04:08:34.875Z,94042.44
2023-03-26T04:11:01.904Z,94051.00
2023-03-26T04:13:28.924Z,94048.13
2023-03-26T04:15:56.416Z,94044.81
2023-03-26T04:18:23.474Z,94044.31
2023-03-26T04:20:50.864Z,94041.00
2023-03-26T04:23:18.864Z,94036.00
2023-03-26T04:25:49.498Z,94030.53
2023-03-26T04:28:28.844Z,94021.03
2023-03-26T04:30:57.258Z,94026.50
2023-03-26T04:33:25.066Z,94025.06
2023-03-26T04:35:52.015Z,94021.75
2023-03-26T04:38:18.845Z,94017.94
2023-03-26T04:40:48.487Z,94006.75
2023-03-26T04:43:18.083Z,94002.72
2023-03-26T04:45:48.028Z,94001.28
2023-03-26T04:48:14.812Z,94001.28
2023-03-26T04:50:43.782Z,93999.41
2023-03-26T04:53:21.560Z,93998.69
2023-03-26T04:56:20.675Z,94000.13
2023-03-26T04:58:48.282Z,93992.06
2023-03-26T05:01:16.720Z,93994.44
2023-03-26T05:03:45.783Z,93995.84
2023-03-26T05:06:13.916Z,93982.06
2023-03-26T05:08:41.885Z,93988.50
2023-03-26T05:11:11.738Z,93984.69
2023-03-26T05:13:39.557Z,93972.81
2023-03-26T05:16:06.763Z,93965.69
2023-03-26T05:18:33.608Z,93964.97
2023-03-26T05:21:00.332Z,93960.91
2023-03-26T05:23:27.145Z,93963.53
2023-03-26T05:25:54.074Z,93956.19
2023-03-26T05:28:24.348Z,93950.47
2023-03-26T05:30:54.623Z,93940.72
2023-03-26T05:33:22.627Z,93932.88
2023-03-26T05:36:00.254Z,93932.88
2023-03-26T05:38:29.132Z,93932.88
2023-03-26T05:41:07.567Z,93931.69
2023-03-26T05:43:34.624Z,93940.94
2023-03-26T05:46:01.901Z,93948.78
2023-03-26T05:48:28.836Z,93948.09
2023-03-26T05:50:57.334Z,93951.41
2023-03-26T05:53:27.080Z,93946.91
2023-03-26T05:55:57.980Z,93941.91
2023-03-26T05:58:26.422Z,93938.56
2023-03-26T06:01:05.876Z,93939.28
2023-03-26T06:03:33.726Z,93932.41
2023-03-26T06:06:00.525Z,93932.41
2023-03-26T06:08:27.475Z,93935.47
2023-03-26T06:11:02.819Z,93930.94
2023-03-26T06:13:30.016Z,93925.25
2023-03-26T06:15:58.308Z,93912.88
2023-03-26T06:18:26.541Z,93919.56
2023-03-26T06:20:53.663Z,93899.09
2023-03-26T06:23:20.837Z,93898.63
2023-03-26T06:25:47.932Z,93892.22
2023-03-26T06:28:15.495Z,93887.22
2023-03-26T06:30:42.758Z,93895.28
2023-03-26T06:33:10.139Z,93896.03
2023-03-26T06:35:37.209Z,93891.03
2023-03-26T06:38:04.764Z,93890.06
2023-03-26T06:40:32.848Z,93888.41
2023-03-26T06:43:08.873Z,93889.59
2023-03-26T06:45:37.634Z,93885.81
2023-03-26T06:48:05.071Z,93879.38
2023-03-26T06:50:32.907Z,93856.03
2023-03-26T06:52:59.770Z,93854.59
2023-03-26T06:55:27.302Z,93856.75
2023-03-26T06:57:55.997Z,93845.81
2023-03-26T07:00:22.987Z,93839.38
2023-03-26T07:02:50.085Z,93828.69
2023-03-26T07:05:17.101Z,93820.16
2023-03-26T07:07:46.137Z,93815.38
2023-03-26T07:10:14.003Z,93807.31
2023-03-26T07:12:42.493Z,93809.19
2023-03-26T07:15:10.529Z,93807.06
2023-03-26T07:17:37.594Z,93799.44
2023-03-26T07:20:06.600Z,93798.94
2023-03-26T07:22:33.941Z,93791.31
2023-03-26T07:25:01.237Z,93786.31
2023-03-26T07:27:55.229Z,93771.56
2023-03-26T07:30:29.015Z,93763.22
2023-03-26T07:33:24.902Z,93754.91
2023-03-26T07:36:00.385Z,93755.13
2023-03-26T07:38:48.863Z,93757.97
2023-03-26T07:41:39.054Z,93764.63
2023-03-26T07:44:20.922Z,93745.63
2023-03-26T07:46:49.231Z,93747.72
2023-03-26T07:49:17.958Z,93736.75
2023-03-26T07:51:45.008Z,93731.06
2023-03-26T07:54:11.956Z,93724.16
2023-03-26T07:56:53.334Z,93733.63
2023-03-26T07:59:25.809Z,93740.78
2023-03-26T08:02:17.469Z,93753.34
2023-03-26T08:05:02.347Z,93745.00
2023-03-26T08:07:34.147Z,93747.84
2023-03-26T08:10:22.682Z,93739.53
2023-03-26T08:13:16.835Z,93741.22
2023-03-26T08:15:53.548Z,93744.06
2023-03-26T08:18:41.480Z,93755.94
2023-03-26T08:21:17.392Z,93757.38
2023-03-26T08:24:32.015Z,93755.44
2023-03-26T08:27:16.766Z,93757.38
2023-03-26T08:30:20.744Z,93743.16
2023-03-26T08:32:56.296Z,93722.41
2023-03-26T08:35:24.267Z,93713.78
2023-03-26T08:37:51.965Z,93710.19
2023-03-26T08:40:43.746Z,93706.50
2023-03-26T08:43:22.353Z,93709.25
2023-03-26T08:45:57.872Z,93713.75
2023-03-26T08:48:46.272Z,93710.66
2023-03-26T08:51:13.035Z,93708.94
2023-03-26T08:53:45.706Z,93706.41
2023-03-26T08:56:20.971Z,93698.28
2023-03-26T08:58:56.921Z,93709.25
2023-03-26T09:02:05.859Z,93710.91
2023-03-26T09:05:09.436Z,93702.84
2023-03-26T09:07:41.965Z,93707.34
2023-03-26T09:10:34.993Z,93709.94
2023-03-26T09:13:17.244Z,93721.81
2023-03-26T09:15:43.968Z,93719.91
2023-03-26T09:18:53.700Z,93717.34
2023-03-26T09:21:57.960Z,93709.44
2023-03-26T09:24:35.594Z,93720.22
2023-03-26T09:27:16.181Z,93709.94
2023-03-26T09:30:10.489Z,93687.34
2023-03-26T09:32:56.462Z,93689.44
2023-03-26T09:35:29.143Z,93686.19
2023-03-26T09:38:40.642Z,93669.03
2023-03-26T09:41:17.520Z,93676.63
2023-03-26T09:44:05.418Z,93668.84
2023-03-26T09:46:45.590Z,93676.69
2023-03-26T09:49:44.807Z,93664.44
2023-03-26T09:52:44.422Z,93666.97
2023-03-26T09:55:26.381Z,93669.22
2023-03-26T09:58:30.466Z,93664.63
2023-03-26T10:01:01.083Z,93677.22
2023-03-26T10:03:31.275Z,93689.22
2023-03-26T10:06:07.267Z,93691.06
2023-03-26T10:08:58.598Z,93681.69
2023-03-26T10:11:37.531Z,93689.88
2023-03-26T10:14:15.753Z,93674.91
2023-03-26T10:17:00.175Z,93673.91
2023-03-26T10:19:29.859Z,93674.16
2023-03-26T10:22:15.629Z,93666.50
2023-03-26T10:25:06.878Z,93663.28
2023-03-26T10:27:58.182Z,93663.72
2023-03-26T10:31:03.654Z,93648.66
2023-03-26T10:34:28.123Z,93657.22
2023-03-26T10:37:04.916Z,93656.94
2023-03-26T10:39:59.310Z,93652.41
2023-03-26T10:42:41.269Z,93647.47
2023-03-26T10:45:26.497Z,93657.63
2023-03-26T10:47:58.829Z,93669.44
2023-03-26T10:50:51.367Z,93665.25
2023-03-26T10:53:20.950Z,93667.06
2023-03-26T10:55:53.713Z,93658.03
2023-03-26T10:58:29.544Z,93685.47
2023-03-26T11:01:36.005Z,93675.38
2023-03-26T11:04:25.651Z,93687.50
2023-03-26T11:07:04.976Z,93677.06
2023-03-26T11:09:40.868Z,93673.50
2023-03-26T11:12:25.639Z,93671.91
2023-03-26T11:14:54.078Z,93673.66
2023-03-26T11:17:48.548Z,93668.00
2023-03-26T11:20:18.321Z,93676.91
2023-03-26T11:23:23.758Z,93689.03
2023-03-26T11:25:57.838Z,93679.38
2023-03-26T11:29:03.567Z,93668.53
2023-03-26T11:31:43.753Z,93645.88
2023-03-26T11:34:18.948Z,93640.75
2023-03-26T11:36:50.283Z,93634.50
2023-03-26T11:39:29.732Z,93624.28
2023-03-26T11:42:06.287Z,93622.28
2023-03-26T11:44:51.420Z,93618.72
2023-03-26T11:47:29.725Z,93601.50
2023-03-26T11:49:59.399Z,93607.56
2023-03-26T11:52:27.001Z,93622.91
2023-03-26T11:54:54.412Z,93612.34
2023-03-26T11:57:25.974Z,93627.69
2023-03-26T12:00:04.503Z,93621.78
2023-03-26T12:02:38.900Z,93622.47
2023-03-26T12:05:25.127Z,93617.47
2023-03-26T12:07:59.072Z,93632.50
2023-03-26T12:10:25.854Z,93625.31
2023-03-26T12:12:56.385Z,93626.88
2023-03-26T12:15:24.484Z,93620.16
2023-03-26T12:17:56.174Z,93609.59
2023-03-26T12:20:25.804Z,93596.31
2023-03-26T12:22:59.399Z,93590.63
2023-03-26T12:25:30.237Z,93593.53
2023-03-26T12:28:13.886Z,93604.50
2023-03-26T12:30:42.703Z,93603.81
2023-03-26T12:33:28.576Z,93591.28
2023-03-26T12:35:58.399Z,93582.56
2023-03-26T12:38:33.446Z,93586.97
2023-03-26T12:43:40.323Z,93575.50
2023-03-26T12:44:48.417Z,93564.34
2023-03-26T12:47:57.562Z,93562.28
2023-03-26T12:50:14.668Z,93556.13
2023-03-26T12:52:56.449Z,93560.97
2023-03-26T12:55:52.311Z,93545.88
2023-03-26T12:58:58.857Z,93549.25
2023-03-26T13:01:33.439Z,93570.56
2023-03-26T13:04:25.311Z,93561.09
2023-03-26T13:07:02.108Z,93551.41
2023-03-26T13:09:35.165Z,93564.53
2023-03-26T13:12:07.544Z,93553.03
2023-03-26T13:14:45.916Z,93567.09
2023-03-26T13:17:31.112Z,93566.69
2023-03-26T13:20:12.934Z,93572.50
2023-03-26T13:22:56.575Z,93569.34
2023-03-26T13:25:28.943Z,93561.63
2023-03-26T13:28:06.999Z,93556.56
2023-03-26T13:30:42.132Z,93547.88
2023-03-26T13:33:20.984Z,93547.28
2023-03-26T13:36:21.727Z,93544.88
2023-03-26T13:39:42.513Z,93539.16
2023-03-26T13:42:26.799Z,93524.81
2023-03-26T13:45:05.669Z,93518.91
2023-03-26T13:47:39.528Z,93516.22
2023-03-26T13:50:29.554Z,93504.13
2023-03-26T13:53:00.219Z,93512.75
2023-03-26T13:55:38.306Z,93503.31
2023-03-26T13:58:14.587Z,93506.69
2023-03-26T14:01:00.370Z,93498.44
2023-03-26T14:03:43.089Z,93492.13
2023-03-26T14:06:34.758Z,93477.47
2023-03-26T14:09:10.681Z,93481.34
2023-03-26T14:11:56.782Z,93466.25
2023-03-26T14:14:49.103Z,93471.09
2023-03-26T14:17:15.832Z,93466.94
2023-03-26T14:20:17.895Z,93456.47
2023-03-26T14:23:09.441Z,93451.00
2023-03-26T14:26:10.559Z,93447.91
2023-03-26T14:28:55.336Z,93440.34
2023-03-26T14:31:39.165Z,93454.34
2023-03-26T14:34:14.845Z,93437.81
2023-03-26T14:36:51.637Z,93449.72
2023-03-26T14:39:37.158Z,93437.19
2023-03-26T14:42:23.489Z,93446.09
2023-03-26T14:45:11.612Z,93459.19
2023-03-26T14:47:46.495Z,93477.81
2023-03-26T14:50:48.331Z,93498.41
2023-03-26T14:53:36.737Z,93446.22
2023-03-26T14:56:14.377Z,93474.03
2023-03-26T14:58:51.197Z,93471.72
2023-03-26T15:01:22.952Z,93480.63
2023-03-26T15:04:17.920Z,93486.47
2023-03-26T15:07:03.287Z,93497.25
2023-03-26T15:10:07.609Z,93477.19
2023-03-26T15:13:16.069Z,93486.63
2023-03-26T15:15:42.786Z,93495.03
2023-03-26T15:18:15.564Z,93496.63
2023-03-26T15:21:13.042Z,93453.47
2023-03-26T15:24:01.638Z,93466.00
2023-03-26T15:26:52.942Z,93460.44
2023-03-26T15:29:53.392Z,93448.88
2023-03-26T15:33:07.663Z,93459.31
2023-03-26T15:35:59.082Z,93466.19
2023-03-26T15:38:57.375Z,93461.16
2023-03-26T15:41:26.856Z,93453.88
2023-03-26T15:44:24.650Z,93460.00
2023-03-26T15:46:56.903Z,93470.34
2023-03-26T15:49:48.950Z,93470.19
2023-03-26T15:52:33.253Z,93470.16
2023-03-26T15:55:27.735Z,93465.53
2023-03-26T15:57:58.036Z,93464.22
2023-03-26T16:00:29.143Z,93461.69
2023-03-26T16:03:11.204Z,93463.09
2023-03-26T16:05:50.392Z,93458.94
2023-03-26T16:08:38.894Z,93461.53
2023-03-26T16:11:12.706Z,93460.13
2023-03-26T16:13:41.480Z,93470.31
2023-03-26T16:16:22.839Z,93456.69
2023-03-26T16:19:32.694Z,93466.88
2023-03-26T16:22:10.457Z,93478.84
2023-03-26T16:24:41.211Z,93461.91
2023-03-26T16:27:13.722Z,93448.78
2023-03-26T16:30:00.670Z,93465.66
2023-03-26T16:32:29.933Z,93472.81
2023-03-26T16:35:22.866Z,93456.63
2023-03-26T16:38:10.657Z,93461.50
2023-03-26T16:40:56.268Z,93464.47
2023-03-26T16:43:31.735Z,93476.34
2023-03-26T16:46:22.516Z,93465.00
2023-03-26T16:49:10.723Z,93467.09
2023-03-26T16:51:49.167Z,93464.66
2023-03-26T16:54:50.204Z,93470.03
2023-03-26T16:57:26.117Z,93481.84
2023-03-26T17:00:24.543Z,93481.28
2023-03-26T17:03:03.706Z,93477.47
2023-03-26T17:05:37.405Z,93490.69
2023-03-26T17:08:36.736Z,93507.47
2023-03-26T17:11:04.197Z,93521.41
2023-03-26T17:14:06.325Z,93552.75
2023-03-26T17:16:34.450Z,93564.97
2023-03-26T17:19:19.641Z,93564.59
2023-03-26T17:22:03.839Z,93558.31
2023-03-26T17:24:49.497Z,93556.13
2023-03-26T17:27:19.437Z,93556.16
2023-03-26T17:30:10.783Z,93536.03
2023-03-26T17:32:55.564Z,93539.91
2023-03-26T17:35:41.146Z,93527.81
2023-03-26T17:38:28.116Z,93526.72
2023-03-26T17:40:59.769Z,93538.84
2023-03-26T17:43:39.022Z,93526.03
2023-03-26T17:46:19.546Z,93532.97
2023-03-26T17:48:50.357Z,93559.34
2023-03-26T17:51:43.353Z,93544.53
2023-03-26T17:54:24.676Z,93544.06
2023-03-26T17:56:56.434Z,93551.97
2023-03-26T17:59:27.312Z,93540.78
2023-03-26T18:01:57.718Z,93549.75
2023-03-26T18:04:39.248Z,93547.44
2023-03-26T18:07:14.318Z,93543.66
2023-03-26T18:09:53.673Z,93554.97
2023-03-26T18:12:38.203Z,93536.56
2023-03-26T18:15:25.928Z,93544.94
2023-03-26T18:18:01.759Z,93543.75
2023-03-26T18:20:29.753Z,93547.59
2023-03-26T18:22:56.618Z,93538.81
2023-03-26T18:25:35.210Z,93538.81
2023-03-26T18:28:02.483Z,93536.81
2023-03-26T18:30:29.409Z,93531.50
2023-03-26T18:33:12.186Z,93529.06
2023-03-26T18:35:51.981Z,93528.47
2023-03-26T18:38:35.825Z,93526.25
2023-03-26T18:41:06.544Z,93514.97
2023-03-26T18:43:43.809Z,93528.78
2023-03-26T18:46:14.091Z,93521.63
2023-03-26T20:18:17.582Z,93533.75
2023-03-26T20:20:45.165Z,93536.41
2023-03-26T20:23:23.977Z,93547.50
2023-03-26T20:25:54.033Z,93555.31
2023-03-26T20:28:21.182Z,93542.09
2023-03-26T20:30:48.751Z,93548.72
2023-03-26T20:33:19.427Z,93529.53
2023-03-26T20:35:47.264Z,93544.00
2023-03-26T20:38:13.938Z,93525.28
2023-03-26T20:40:44.959Z,93524.56
2023-03-26T20:43:13.608Z,93518.19
2023-03-26T20:45:50.841Z,93529.09
2023-03-26T20:48:20.536Z,93517.47
2023-03-26T20:50:51.001Z,93526.69
2023-03-26T20:53:19.079Z,93510.63
2023-03-26T20:55:46.717Z,93521.75
2023-03-26T20:58:15.101Z,93534.28
2023-03-26T21:00:44.966Z,93517.94
2023-03-26T21:03:14.308Z,93512.94
2023-03-26T21:05:42.819Z,93530.69
2023-03-26T21:08:16.736Z,93521.91
2023-03-26T21:10:43.781Z,93515.75
2023-03-26T21:13:40.959Z,93512.19
2023-03-26T21:16:09.387Z,93507.25
2023-03-26T21:18:36.852Z,93517.69
2023-03-26T21:21:26.842Z,93521.94
2023-03-26T21:24:03.218Z,93518.66
2023-03-26T21:26:31.961Z,93513.63
2023-03-26T21:28:59.373Z,93510.84
2023-03-26T21:31:28.489Z,93512.94
2023-03-26T21:33:55.321Z,93508.00
2023-03-26T21:36:25.004Z,93514.88
2023-03-26T21:38:54.698Z,93514.38
2023-03-26T21:41:24.146Z,93526.69
2023-03-26T21:43:51.476Z,93527.66
2023-03-26T21:46:19.831Z,93518.88
2023-03-26T21:48:55.471Z,93509.91
2023-03-26T21:51:22.235Z,93493.09
2023-03-26T21:53:51.411Z,93523.16
2023-03-26T21:56:47.231Z,93528.38
2023-03-26T21:59:19.808Z,93524.09
2023-03-26T22:02:11.763Z,93519.09
2023-03-26T22:04:58.690Z,93523.84
2023-03-26T22:07:27.892Z,93525.03
2023-03-26T22:09:54.655Z,93532.16
2023-03-26T22:12:21.364Z,93517.00
2023-03-26T22:14:48.348Z,93519.13
2023-03-26T22:17:19.358Z,93524.09
2023-03-26T22:19:48.873Z,93502.78
2023-03-26T22:22:15.510Z,93512.97
2023-03-26T22:24:44.518Z,93521.75
2023-03-26T22:27:13.060Z,93521.50
2023-03-26T22:29:45.286Z,93506.13
2023-03-26T22:32:12.117Z,93520.78
2023-03-26T22:34:38.859Z,93519.13
2023-03-26T22:37:08.235Z,93510.59
2023-03-26T22:39:37.918Z,93506.81
2023-03-26T22:42:05.074Z,93508.47
2023-03-26T22:44:32.067Z,93504.72
2023-03-26T22:46:58.888Z,93515.09
2023-03-26T22:49:27.597Z,93528.84
2023-03-26T22:51:54.217Z,93521.00
2023-03-26T22:54:20.928Z,93523.16
2023-03-26T22:56:47.592Z,93497.81
2023-03-26T22:59:14.469Z,93517.94
2023-03-26T23:01:45.714Z,93500.91
2023-03-26T23:04:13.112Z,93504.91
2023-03-26T23:06:58.595Z,93496.38
2023-03-26T23:09:25.327Z,93504.91
2023-03-26T23:11:59.714Z,93503.50
2023-03-26T23:14:26.581Z,93512.22
2023-03-26T23:16:57.362Z,93496.41
2023-03-26T23:19:26.223Z,93490.69
2023-03-26T23:21:52.841Z,93486.22
2023-03-26T23:24:19.820Z,93486.22
2023-03-26T23:29:15.870Z,93494.03
2023-03-26T23:31:42.515Z,93478.66
2023-03-26T23:34:09.099Z,93493.53
2023-03-26T23:36:36.396Z,93485.25
2023-03-26T23:39:04.831Z,93493.78
2023-03-26T23:41:31.473Z,93487.88
2023-03-26T23:43:58.086Z,93478.88
2023-03-26T23:46:30.315Z,93483.38
2023-03-26T23:49:00.102Z,93462.09
2023-03-26T23:51:36.078Z,93462.09
2023-03-26T23:54:03.144Z,93472.03
2023-03-26T23:56:30.030Z,93473.91
2023-03-26T23:58:56.854Z,93467.28
